Time;durP1;ratioP1;P1;durP2;ratioP2;P2;SDS_P1;SDS_P2;PMS_P1;PMS_P2;Temp;Humidity;BMP_temperature;BMP_pressure;BME280_temperature;BME280_humidity;BME280_pressure;Samples;Min_cycle;Max_cycle;Signal;HPM_P1;HPM_P2
2023/07/15 00:00:23;;;;;;;10.57;4.28;;;20.30;99.90;;;;;;5034284;28;20377;-67
2023/07/15 00:02:50;;;;;;;8.38;4.25;;;20.30;99.90;;;;;;5033985;28;20041;-67
2023/07/15 00:05:25;;;;;;;7.78;4.10;;;20.30;99.90;;;;;;5033320;28;20404;-68
2023/07/15 00:07:51;;;;;;;7.63;3.88;;;20.30;99.90;;;;;;5033087;28;20102;-67
2023/07/15 00:10:17;;;;;;;6.97;3.80;;;20.30;99.90;;;;;;5033380;28;20459;-67
2023/07/15 00:12:43;;;;;;;7.78;4.20;;;20.30;99.90;;;;;;5032571;28;20091;-68
2023/07/15 00:15:11;;;;;;;7.38;3.75;;;20.30;99.90;;;;;;5032851;28;20041;-67
2023/07/15 00:17:37;;;;;;;8.82;3.95;;;20.30;99.90;;;;;;5033745;28;20041;-68
2023/07/15 00:20:07;;;;;;;9.68;3.95;;;20.20;99.90;;;;;;5033821;28;20037;-67
2023/07/15 00:22:33;;;;;;;8.13;3.88;;;20.20;99.90;;;;;;5033779;28;20041;-67
2023/07/15 00:24:58;;;;;;;6.00;3.80;;;20.20;99.90;;;;;;5033399;28;20417;-66
2023/07/15 00:27:25;;;;;;;5.10;3.63;;;20.20;99.90;;;;;;5032100;28;20124;-67
2023/07/15 00:29:51;;;;;;;4.70;3.22;;;20.20;99.90;;;;;;5033808;28;20045;-66
2023/07/15 00:32:17;;;;;;;5.38;3.38;;;20.20;99.90;;;;;;5033719;28;20049;-66
2023/07/15 00:34:42;;;;;;;9.60;4.30;;;20.10;99.90;;;;;;5033414;28;20546;-67
2023/07/15 00:37:08;;;;;;;6.95;3.53;;;20.10;99.90;;;;;;5033167;28;20129;-66
2023/07/15 00:39:35;;;;;;;5.88;3.83;;;20.10;99.90;;;;;;5033174;28;20056;-66
2023/07/15 00:42:08;;;;;;;7.75;4.03;;;20.10;99.90;;;;;;5033611;28;20049;-67
2023/07/15 00:44:34;;;;;;;5.75;3.05;;;20.00;99.90;;;;;;5031921;28;20077;-67
2023/07/15 00:47:21;;;;;;;7.57;4.00;;;20.00;99.90;;;;;;5031788;28;20412;-66
2023/07/15 00:49:49;;;;;;;5.55;3.45;;;20.00;99.90;;;;;;5033168;28;20496;-66
2023/07/15 00:52:16;;;;;;;6.63;3.50;;;20.00;99.90;;;;;;5033266;28;20045;-67
2023/07/15 00:54:45;;;;;;;8.05;3.97;;;19.90;99.90;;;;;;5033148;28;20049;-67
2023/07/15 00:57:14;;;;;;;5.40;3.40;;;19.90;99.90;;;;;;5032744;28;20037;-67
2023/07/15 00:59:41;;;;;;;4.22;3.53;;;19.90;99.90;;;;;;5033018;28;20045;-67
2023/07/15 01:02:11;;;;;;;5.07;3.03;;;19.90;99.90;;;;;;5032569;28;20500;-67
2023/07/15 01:04:36;;;;;;;8.93;3.78;;;19.80;99.90;;;;;;5057933;22;20045;-67
2023/07/15 01:07:05;;;;;;;6.80;3.47;;;19.90;99.90;;;;;;5051278;28;20028;-67
2023/07/15 01:09:31;;;;;;;3.92;3.22;;;19.90;99.90;;;;;;5051047;28;20045;-67
2023/07/15 01:11:56;;;;;;;6.07;3.42;;;19.90;99.90;;;;;;5051324;28;20082;-69
2023/07/15 01:14:22;;;;;;;8.82;4.03;;;19.80;99.90;;;;;;5049065;28;20049;-69
2023/07/15 01:16:48;;;;;;;6.30;4.40;;;19.80;99.90;;;;;;5011829;28;20088;-69
2023/07/15 01:19:18;;;;;;;5.13;3.47;;;19.80;99.90;;;;;;5013643;28;20049;-69
2023/07/15 01:21:49;;;;;;;5.85;3.70;;;19.90;99.90;;;;;;5014219;28;20048;-69
2023/07/15 01:24:16;;;;;;;6.25;3.67;;;19.80;99.90;;;;;;5032682;28;20079;-69
2023/07/15 01:26:41;;;;;;;5.75;3.90;;;19.80;99.90;;;;;;5032234;28;20049;-69
2023/07/15 01:29:07;;;;;;;4.97;3.60;;;19.80;99.90;;;;;;5032449;28;20038;-69
2023/07/15 01:31:33;;;;;;;6.00;3.70;;;19.90;99.90;;;;;;5032435;28;20098;-69
2023/07/15 01:33:58;;;;;;;6.95;3.67;;;19.80;99.90;;;;;;5032373;28;20038;-69
2023/07/15 01:36:25;;;;;;;8.10;3.85;;;19.80;99.90;;;;;;5014523;28;20037;-69
2023/07/15 01:38:50;;;;;;;5.10;4.20;;;19.80;99.90;;;;;;5032109;28;20046;-69
2023/07/15 01:41:16;;;;;;;6.93;3.80;;;19.70;99.90;;;;;;5032371;28;20037;-69
2023/07/15 01:43:41;;;;;;;7.13;3.97;;;19.70;99.90;;;;;;5014533;28;20037;-69
2023/07/15 01:46:07;;;;;;;7.95;3.83;;;19.70;99.90;;;;;;5014067;28;20041;-69
2023/07/15 01:48:33;;;;;;;5.20;3.35;;;19.70;99.90;;;;;;5032083;28;20044;-69
2023/07/15 01:50:58;;;;;;;5.45;3.78;;;19.70;99.90;;;;;;5032211;28;20045;-69
2023/07/15 01:53:24;;;;;;;7.18;3.30;;;19.70;99.90;;;;;;5014319;28;20041;-69
2023/07/15 01:55:49;;;;;;;7.50;3.53;;;19.70;99.90;;;;;;5014039;28;20060;-69
2023/07/15 01:58:16;;;;;;;5.90;3.03;;;19.70;99.90;;;;;;5031933;28;20052;-69
2023/07/15 02:00:42;;;;;;;5.68;3.78;;;19.70;99.90;;;;;;5031927;28;20419;-69
2023/07/15 02:03:08;;;;;;;5.30;3.35;;;19.70;99.90;;;;;;5032090;28;20037;-69
2023/07/15 02:05:34;;;;;;;7.53;3.65;;;19.70;99.90;;;;;;5031665;28;20110;-69
2023/07/15 02:07:59;;;;;;;6.35;3.45;;;19.70;99.90;;;;;;5031758;28;20049;-69
2023/07/15 02:10:27;;;;;;;4.63;3.03;;;19.70;99.90;;;;;;5031899;28;20056;-69
2023/07/15 02:12:53;;;;;;;5.50;3.30;;;19.70;99.90;;;;;;5031738;28;20045;-69
2023/07/15 02:15:18;;;;;;;7.00;3.30;;;19.70;99.90;;;;;;5031626;28;20040;-69
2023/07/15 02:17:45;;;;;;;5.30;3.05;;;19.80;99.90;;;;;;5031626;28;20045;-69
2023/07/15 02:20:12;;;;;;;6.97;2.92;;;19.80;99.90;;;;;;5014130;28;20116;-69
2023/07/15 02:22:38;;;;;;;6.35;3.25;;;19.80;99.90;;;;;;5013984;28;20470;-70
2023/07/15 02:25:04;;;;;;;6.18;3.65;;;19.80;99.90;;;;;;5013874;28;20041;-69
2023/07/15 02:27:31;;;;;;;6.10;3.25;;;19.80;99.90;;;;;;5013561;28;20099;-69
2023/07/15 02:29:56;;;;;;;7.28;2.75;;;19.80;99.90;;;;;;5013881;28;20037;-69
2023/07/15 02:32:42;;;;;;;8.68;2.97;;;19.80;99.90;;;;;;5031696;28;20045;-69
2023/07/15 02:35:10;;;;;;;5.07;2.88;;;19.80;99.90;;;;;;5013724;28;20099;-69
2023/07/15 02:37:41;;;;;;;4.45;2.92;;;19.80;99.90;;;;;;5031290;28;20041;-70
2023/07/15 02:40:08;;;;;;;8.10;3.13;;;19.70;99.90;;;;;;5013686;28;20068;-69
2023/07/15 02:42:34;;;;;;;4.15;3.25;;;19.70;99.90;;;;;;5031635;28;20045;-69
2023/07/15 02:45:03;;;;;;;8.35;3.28;;;19.70;99.90;;;;;;5031515;28;20045;-69
2023/07/15 02:47:29;;;;;;;5.65;3.03;;;19.60;99.90;;;;;;5013630;28;20056;-69
2023/07/15 02:49:56;;;;;;;5.55;2.90;;;19.60;99.90;;;;;;4997551;28;20045;-69
2023/07/15 02:52:23;;;;;;;3.47;2.47;;;19.60;99.90;;;;;;5013902;28;20045;-69
2023/07/15 02:54:48;;;;;;;5.80;2.85;;;19.60;99.90;;;;;;5031204;28;20068;-69
2023/07/15 02:57:14;;;;;;;5.30;2.85;;;19.50;99.90;;;;;;5030981;28;20041;-69
2023/07/15 02:59:40;;;;;;;4.97;2.55;;;19.50;99.90;;;;;;5031398;28;20048;-69
2023/07/15 03:02:06;;;;;;;6.47;2.92;;;19.60;99.90;;;;;;5031412;28;20460;-69
2023/07/15 03:04:31;;;;;;;4.35;2.72;;;19.50;99.90;;;;;;5031076;28;20037;-69
2023/07/15 03:07:00;;;;;;;8.60;3.40;;;19.50;99.90;;;;;;5013256;28;20052;-69
2023/07/15 03:09:25;;;;;;;5.40;2.95;;;19.60;99.90;;;;;;5031102;28;20046;-69
2023/07/15 03:11:51;;;;;;;4.70;2.83;;;19.50;99.90;;;;;;5031388;28;20038;-69
2023/07/15 03:14:16;;;;;;;7.35;3.47;;;19.50;99.90;;;;;;5013360;28;20037;-69
2023/07/15 03:16:42;;;;;;;3.53;2.67;;;19.50;99.90;;;;;;5013145;28;20096;-69
2023/07/15 03:19:07;;;;;;;7.80;3.00;;;19.40;99.90;;;;;;5031052;28;20045;-69
2023/07/15 03:21:33;;;;;;;3.97;2.95;;;19.40;99.90;;;;;;5031093;28;20041;-69
2023/07/15 03:23:59;;;;;;;4.93;3.38;;;19.30;99.90;;;;;;5031013;28;20051;-69
2023/07/15 03:26:24;;;;;;;5.10;3.10;;;19.20;99.90;;;;;;5030615;28;20045;-69
2023/07/15 03:28:50;;;;;;;4.90;2.90;;;19.20;99.90;;;;;;5031178;28;20099;-69
2023/07/15 03:31:15;;;;;;;5.30;3.22;;;19.20;99.90;;;;;;5030995;28;20041;-69
2023/07/15 03:33:41;;;;;;;5.93;3.30;;;19.10;99.90;;;;;;5031005;28;20041;-69
2023/07/15 03:36:07;;;;;;;3.45;2.63;;;19.00;99.90;;;;;;4996443;28;20048;-69
2023/07/15 03:38:32;;;;;;;3.72;2.90;;;19.00;99.90;;;;;;5013093;28;20188;-69
2023/07/15 03:40:58;;;;;;;3.88;3.25;;;19.00;99.90;;;;;;5033326;28;20045;-69
2023/07/15 03:43:23;;;;;;;6.78;2.97;;;18.90;99.90;;;;;;5016743;28;20502;-69
2023/07/15 03:45:49;;;;;;;6.63;3.15;;;18.90;99.90;;;;;;5034169;28;20471;-69
2023/07/15 03:48:14;;;;;;;4.13;3.05;;;18.90;99.90;;;;;;5034439;28;20408;-69
2023/07/15 03:50:43;;;;;;;4.13;2.90;;;18.90;99.90;;;;;;5034359;28;20419;-69
2023/07/15 03:53:08;;;;;;;11.23;3.65;;;18.90;99.90;;;;;;5034283;28;20046;-69
2023/07/15 03:55:37;;;;;;;5.28;2.97;;;18.90;99.90;;;;;;5034263;28;20037;-69
2023/07/15 03:58:02;;;;;;;6.90;3.00;;;18.80;99.90;;;;;;5034116;28;20041;-69
2023/07/15 04:00:28;;;;;;;5.45;2.65;;;18.80;99.90;;;;;;5034194;28;20068;-69
2023/07/15 04:02:54;;;;;;;4.07;2.88;;;18.70;99.90;;;;;;5034031;28;20496;-69
2023/07/15 04:05:20;;;;;;;4.10;2.85;;;18.90;99.90;;;;;;5033793;28;20057;-69
2023/07/15 04:07:47;;;;;;;5.05;3.13;;;18.90;99.90;;;;;;5033627;28;20043;-69
2023/07/15 04:10:13;;;;;;;6.75;2.53;;;18.90;99.90;;;;;;5016239;28;20045;-69
2023/07/15 04:12:39;;;;;;;4.88;3.08;;;18.80;99.90;;;;;;5034048;28;20052;-69
2023/07/15 04:15:05;;;;;;;5.85;2.80;;;18.80;99.90;;;;;;5033902;28;20172;-69
2023/07/15 04:17:31;;;;;;;3.95;2.72;;;18.80;99.90;;;;;;5033428;28;20120;-69
2023/07/15 04:19:56;;;;;;;10.10;3.33;;;18.80;99.90;;;;;;5033680;28;20141;-69
2023/07/15 04:22:23;;;;;;;4.85;3.10;;;18.80;99.90;;;;;;5033642;28;20041;-69
2023/07/15 04:24:49;;;;;;;4.68;3.03;;;18.90;99.90;;;;;;5033683;28;20034;-69
2023/07/15 04:27:15;;;;;;;5.50;2.95;;;18.90;99.90;;;;;;5033533;28;20033;-69
2023/07/15 04:29:40;;;;;;;4.78;2.83;;;18.90;99.90;;;;;;5033616;28;20037;-69
2023/07/15 04:32:06;;;;;;;8.88;2.80;;;18.90;99.90;;;;;;5015818;28;20047;-69
2023/07/15 04:34:31;;;;;;;4.32;2.58;;;18.90;99.90;;;;;;5015747;28;20408;-69
2023/07/15 04:36:57;;;;;;;7.07;2.70;;;19.00;99.90;;;;;;5033047;28;20049;-69
2023/07/15 04:39:25;;;;;;;5.93;2.47;;;19.00;99.90;;;;;;5033171;28;20088;-69
2023/07/15 04:41:51;;;;;;;7.35;3.00;;;19.00;99.90;;;;;;5033337;28;20116;-69
2023/07/15 04:44:16;;;;;;;4.90;2.75;;;19.10;99.90;;;;;;5015493;28;20124;-69
2023/07/15 04:46:42;;;;;;;4.93;2.67;;;19.10;99.90;;;;;;5033003;28;20121;-69
2023/07/15 04:49:09;;;;;;;5.78;3.00;;;19.20;99.90;;;;;;5015417;28;20086;-69
2023/07/15 04:51:34;;;;;;;3.83;3.00;;;19.20;99.90;;;;;;5015577;28;20045;-69
2023/07/15 04:54:00;;;;;;;7.00;3.05;;;19.30;99.90;;;;;;5015669;28;20044;-69
2023/07/15 04:56:26;;;;;;;4.95;2.80;;;19.40;99.90;;;;;;5015110;28;20489;-69
2023/07/15 04:58:52;;;;;;;6.57;2.85;;;19.50;99.90;;;;;;4998845;28;20041;-69
2023/07/15 05:01:18;;;;;;;6.50;3.00;;;19.70;99.90;;;;;;5014860;28;20076;-69
2023/07/15 05:03:43;;;;;;;6.22;2.47;;;20.00;99.90;;;;;;5024557;28;20038;-69
2023/07/15 05:06:09;;;;;;;5.28;2.65;;;20.20;99.90;;;;;;5006420;28;20037;-69
2023/07/15 05:08:34;;;;;;;6.93;2.60;;;20.30;99.90;;;;;;5010783;28;20432;-69
2023/07/15 05:11:00;;;;;;;7.68;2.75;;;20.40;99.90;;;;;;5032838;28;20029;-69
2023/07/15 05:13:26;;;;;;;4.55;2.53;;;20.60;99.90;;;;;;5032754;28;20043;-69
2023/07/15 05:15:51;;;;;;;4.45;2.38;;;20.70;99.90;;;;;;5024072;28;20048;-69
2023/07/15 05:18:17;;;;;;;4.18;2.85;;;20.70;99.90;;;;;;5032598;28;20404;-69
2023/07/15 05:20:43;;;;;;;5.13;2.50;;;20.70;99.90;;;;;;5032443;28;20452;-69
2023/07/15 05:23:09;;;;;;;4.05;2.30;;;21.00;99.90;;;;;;5024218;28;20063;-69
2023/07/15 05:25:34;;;;;;;4.45;2.65;;;21.30;99.90;;;;;;4998374;28;20091;-69
2023/07/15 05:28:00;;;;;;;5.45;2.03;;;21.60;99.90;;;;;;5032475;28;20029;-69
2023/07/15 05:30:26;;;;;;;4.55;2.35;;;21.80;99.90;;;;;;5032609;28;20041;-69
2023/07/15 05:32:51;;;;;;;4.18;2.40;;;22.00;99.90;;;;;;5032359;28;20120;-69
2023/07/15 05:35:17;;;;;;;3.97;2.95;;;22.30;99.90;;;;;;5032204;28;20045;-69
2023/07/15 05:37:43;;;;;;;5.72;2.33;;;22.60;99.90;;;;;;5014502;28;20034;-69
2023/07/15 05:40:09;;;;;;;4.13;2.47;;;22.80;99.90;;;;;;5032202;28;20463;-69
2023/07/15 05:42:40;;;;;;;7.38;2.83;;;23.10;99.90;;;;;;5024708;28;20034;-69
2023/07/15 05:45:06;;;;;;;4.13;3.00;;;23.20;99.20;;;;;;5031835;28;20037;-69
2023/07/15 05:47:32;;;;;;;3.22;2.30;;;23.50;98.60;;;;;;5031865;28;20112;-70
2023/07/15 05:49:57;;;;;;;6.55;2.55;;;23.80;98.20;;;;;;5032334;28;20129;-69
2023/07/15 05:52:24;;;;;;;5.70;2.50;;;24.10;97.00;;;;;;5032307;28;20049;-69
2023/07/15 05:54:49;;;;;;;4.80;2.88;;;24.40;96.30;;;;;;5031789;28;20612;-69
2023/07/15 05:57:15;;;;;;;7.30;2.67;;;24.60;95.60;;;;;;5031837;28;20116;-69
2023/07/15 05:59:40;;;;;;;4.65;1.98;;;24.80;95.70;;;;;;5014316;28;20045;-69
2023/07/15 06:02:06;;;;;;;8.50;2.40;;;24.90;95.00;;;;;;5031068;28;20468;-69
2023/07/15 06:04:31;;;;;;;3.60;2.70;;;25.20;94.90;;;;;;5022723;28;20401;-69
2023/07/15 06:06:57;;;;;;;3.75;2.15;;;25.40;94.20;;;;;;5022138;28;20428;-69
2023/07/15 06:09:23;;;;;;;5.60;2.50;;;25.60;93.90;;;;;;5013739;28;20472;-69
2023/07/15 06:11:48;;;;;;;5.70;2.30;;;25.80;93.40;;;;;;5031517;28;20095;-69
2023/07/15 06:14:14;;;;;;;4.97;2.70;;;26.10;92.00;;;;;;5031673;28;20519;-72
2023/07/15 06:16:39;;;;;;;5.60;2.90;;;26.20;91.90;;;;;;5012613;28;20119;-70
2023/07/15 06:19:05;;;;;;;6.93;2.38;;;26.40;90.70;;;;;;5030980;28;20037;-70
2023/07/15 06:21:30;;;;;;;3.88;1.92;;;26.50;89.20;;;;;;5031527;28;20049;-70
2023/07/15 06:23:56;;;;;;;4.38;2.47;;;26.40;89.20;;;;;;5031524;28;20060;-70
2023/07/15 06:26:21;;;;;;;4.57;2.30;;;26.60;89.10;;;;;;5013300;28;20038;-70
2023/07/15 06:28:47;;;;;;;4.75;2.10;;;26.60;87.70;;;;;;5031688;28;20033;-70
2023/07/15 06:31:13;;;;;;;5.80;2.05;;;26.80;87.30;;;;;;5013668;28;20037;-70
2023/07/15 06:33:39;;;;;;;5.22;3.05;;;27.00;87.20;;;;;;5031552;28;20037;-70
2023/07/15 06:36:06;;;;;;;5.15;2.53;;;26.80;87.30;;;;;;5026917;28;20523;-70
2023/07/15 06:38:32;;;;;;;3.97;2.40;;;26.50;88.80;;;;;;5013190;28;20045;-70
2023/07/15 06:40:58;;;;;;;3.08;2.10;;;26.20;89.20;;;;;;5031395;28;20037;-70
2023/07/15 06:43:23;;;;;;;4.30;2.22;;;26.10;90.40;;;;;;5031227;28;20037;-70
2023/07/15 06:45:49;;;;;;;4.93;2.47;;;26.20;90.70;;;;;;5030854;28;20042;-70
2023/07/15 06:48:17;;;;;;;3.33;2.38;;;26.30;90.80;;;;;;5031601;28;20120;-70
2023/07/15 06:50:43;;;;;;;5.22;2.30;;;26.10;91.40;;;;;;5031441;28;20052;-71
2023/07/15 06:53:08;;;;;;;5.25;2.45;;;26.10;91.00;;;;;;4997630;28;20029;-70
2023/07/15 06:55:34;;;;;;;4.40;2.17;;;26.00;91.90;;;;;;5012628;28;20691;-70
2023/07/15 06:58:01;;;;;;;6.47;2.00;;;26.10;92.70;;;;;;5030993;28;20037;-70
2023/07/15 07:00:27;;;;;;;5.28;2.20;;;26.30;91.90;;;;;;5030819;28;20045;-70
2023/07/15 07:02:52;;;;;;;3.15;1.80;;;26.30;91.60;;;;;;5031095;28;20051;-70
2023/07/15 07:05:19;;;;;;;4.28;2.30;;;26.30;92.40;;;;;;5052409;22;20042;-68
2023/07/15 07:07:45;;;;;;;4.97;1.95;;;26.10;92.70;;;;;;5030679;28;20041;-68
2023/07/15 07:10:11;;;;;;;2.90;1.60;;;25.90;93.00;;;;;;5031393;28;20132;-68
2023/07/15 07:12:37;;;;;;;2.97;1.60;;;25.90;94.20;;;;;;5031212;28;20121;-68
2023/07/15 07:15:03;;;;;;;7.15;2.00;;;25.70;94.70;;;;;;5031675;28;20048;-68
2023/07/15 07:17:29;;;;;;;6.82;2.17;;;25.60;94.70;;;;;;5034212;28;20037;-68
2023/07/15 07:19:55;;;;;;;7.53;2.10;;;26.00;94.90;;;;;;5033539;28;20045;-68
2023/07/15 07:22:20;;;;;;;3.72;1.90;;;26.50;94.00;;;;;;5034993;28;20052;-67
2023/07/15 07:24:47;;;;;;;4.47;1.77;;;26.50;93.80;;;;;;5034863;28;20052;-67
2023/07/15 07:27:12;;;;;;;5.25;1.85;;;26.50;93.80;;;;;;5034535;28;20041;-68
2023/07/15 07:29:39;;;;;;;3.30;2.05;;;26.60;93.90;;;;;;5034385;28;20041;-68
2023/07/15 07:32:05;;;;;;;4.75;1.48;;;26.90;93.50;;;;;;5034881;28;20049;-68
2023/07/15 07:34:31;;;;;;;1.80;1.50;;;26.40;93.70;;;;;;5031461;28;20493;-68
2023/07/15 07:36:57;;;;;;;4.68;1.70;;;26.30;93.80;;;;;;5034121;28;20049;-66
2023/07/15 07:39:23;;;;;;;3.60;1.83;;;26.30;94.60;;;;;;5034462;28;20051;-67
2023/07/15 07:41:48;;;;;;;4.93;2.05;;;26.40;94.80;;;;;;5034163;28;20041;-67
2023/07/15 07:44:14;;;;;;;6.88;1.75;;;26.70;94.30;;;;;;5034266;28;20545;-67
2023/07/15 07:46:39;;;;;;;7.00;1.83;;;26.80;94.50;;;;;;5033912;28;20125;-67
2023/07/15 07:49:05;;;;;;;2.38;1.48;;;26.80;93.90;;;;;;5034639;28;20072;-66
2023/07/15 07:51:31;;;;;;;5.30;1.95;;;27.00;93.60;;;;;;5034417;28;20041;-68
2023/07/15 07:53:59;;;;;;;4.15;1.83;;;27.10;93.40;;;;;;5019749;28;20033;-66
2023/07/15 07:56:24;;;;;;;4.63;1.70;;;27.10;93.20;;;;;;5024302;28;20516;-66
2023/07/15 07:58:55;;;;;;;5.18;1.52;;;27.20;92.80;;;;;;5031030;28;20034;-66
2023/07/15 08:01:21;;;;;;;3.15;1.80;;;27.10;93.00;;;;;;5033789;28;20038;-67
2023/07/15 08:03:47;;;;;;;1.83;1.45;;;27.40;93.30;;;;;;5033344;28;20029;-66
2023/07/15 08:06:13;;;;;;;3.72;1.58;;;27.80;92.50;;;;;;5023603;28;20416;-66
2023/07/15 08:08:38;;;;;;;7.88;2.15;;;28.20;92.00;;;;;;5025777;28;20365;-66
2023/07/15 08:11:04;;;;;;;2.33;1.52;;;28.10;91.30;;;;;;5033098;28;20048;-66
2023/07/15 08:13:30;;;;;;;2.72;1.70;;;28.20;91.00;;;;;;5030912;28;20408;-67
2023/07/15 08:15:57;;;;;;;5.03;2.20;;;28.40;90.70;;;;;;5033168;28;20088;-67
2023/07/15 08:18:23;;;;;;;5.68;2.00;;;28.40;90.00;;;;;;5033417;28;20041;-67
2023/07/15 08:20:48;;;;;;;3.08;1.73;;;28.10;89.30;;;;;;5032843;28;20033;-67
2023/07/15 08:23:14;;;;;;;3.83;1.67;;;28.10;90.10;;;;;;5032801;28;20571;-67
2023/07/15 08:25:40;;;;;;;4.25;1.77;;;27.80;90.80;;;;;;5031340;28;20061;-66
2023/07/15 08:28:05;;;;;;;4.07;1.60;;;27.50;91.10;;;;;;5032012;28;20408;-66
2023/07/15 08:30:35;;;;;;;2.95;1.75;;;27.50;92.10;;;;;;5033401;28;20469;-68
2023/07/15 08:33:02;;;;;;;3.13;1.52;;;27.40;92.40;;;;;;5033320;28;20143;-67
2023/07/15 08:35:28;;;;;;;4.30;1.23;;;27.40;92.60;;;;;;5033097;28;20041;-66
2023/07/15 08:37:53;;;;;;;2.90;1.63;;;27.60;92.50;;;;;;5032777;28;20505;-67
2023/07/15 08:40:23;;;;;;;3.08;1.70;;;27.10;92.40;;;;;;5031515;28;20071;-66
2023/07/15 08:42:49;;;;;;;2.55;1.30;;;26.90;92.20;;;;;;5032974;28;20038;-66
2023/07/15 08:45:14;;;;;;;2.35;1.58;;;26.70;93.30;;;;;;5032978;28;20057;-66
2023/07/15 08:47:44;;;;;;;3.65;1.40;;;27.10;93.60;;;;;;5032540;28;20095;-67
2023/07/15 08:50:18;;;;;;;3.80;1.73;;;27.30;93.40;;;;;;5032416;28;20037;-66
2023/07/15 08:52:45;;;;;;;2.22;1.35;;;27.10;92.40;;;;;;5032852;28;20049;-67
2023/07/15 08:55:13;;;;;;;2.38;1.30;;;26.90;93.30;;;;;;5032302;28;20037;-66
2023/07/15 08:57:39;;;;;;;2.60;1.30;;;26.70;93.40;;;;;;5032439;28;20033;-67
2023/07/15 09:00:08;;;;;;;3.35;1.48;;;26.40;93.60;;;;;;5032344;28;20531;-66
2023/07/15 09:02:37;;;;;;;1.52;1.20;;;26.20;94.20;;;;;;5027632;28;20578;-67
2023/07/15 09:05:07;;;;;;;1.63;1.27;;;26.50;94.70;;;;;;5032106;28;20041;-67
2023/07/15 09:07:43;;;;;;;3.92;1.60;;;26.90;95.20;;;;;;5031998;28;20034;-67
2023/07/15 09:10:12;;;;;;;3.38;2.00;;;26.70;94.10;;;;;;5032315;28;20500;-66
2023/07/15 09:12:42;;;;;;;2.97;1.33;;;27.20;94.10;;;;;;5032396;28;20052;-67
2023/07/15 09:15:08;;;;;;;4.63;1.80;;;27.10;93.90;;;;;;5032188;28;20117;-66
2023/07/15 09:17:35;;;;;;;2.55;1.30;;;27.20;94.20;;;;;;5032005;28;20116;-66
2023/07/15 09:20:16;;;;;;;2.25;1.30;;;27.10;94.20;;;;;;5031913;28;20386;-66
2023/07/15 09:22:42;;;;;;;3.90;1.92;;;27.30;95.00;;;;;;5028332;28;20065;-67
2023/07/15 09:25:10;;;;;;;3.85;1.42;;;27.60;94.30;;;;;;5031863;28;20069;-67
2023/07/15 09:27:40;;;;;;;3.40;1.80;;;27.90;94.00;;;;;;5030396;28;20423;-66
2023/07/15 09:30:08;;;;;;;5.10;2.00;;;27.90;93.10;;;;;;5031534;28;20041;-67
2023/07/15 09:32:33;;;;;;;4.80;2.03;;;27.60;92.60;;;;;;5031301;28;20049;-66
2023/07/15 09:34:59;;;;;;;4.53;2.38;;;27.30;93.50;;;;;;5028549;28;20072;-66
2023/07/15 09:37:29;;;;;;;2.78;1.80;;;27.50;93.70;;;;;;5031011;28;20044;-67
2023/07/15 09:40:08;;;;;;;3.47;1.90;;;27.40;93.80;;;;;;5027512;28;20041;-67
2023/07/15 09:42:50;;;;;;;3.80;1.88;;;27.80;93.50;;;;;;5031555;28;20547;-66
2023/07/15 09:45:34;;;;;;;2.78;1.70;;;28.30;92.80;;;;;;5031203;28;20408;-67
2023/07/15 09:48:05;;;;;;;3.70;1.67;;;28.20;93.50;;;;;;5029516;28;20517;-67
2023/07/15 09:50:33;;;;;;;3.25;1.45;;;28.10;93.20;;;;;;5031685;28;20125;-67
2023/07/15 09:52:59;;;;;;;6.93;2.50;;;28.20;93.30;;;;;;5031352;28;20057;-66
2023/07/15 09:55:26;;;;;;;3.80;1.67;;;28.10;92.50;;;;;;5030866;28;20037;-66
2023/07/15 09:58:00;;;;;;;4.32;2.00;;;28.00;92.90;;;;;;5030730;28;20037;-66
2023/07/15 10:00:31;;;;;;;3.75;1.90;;;28.00;92.80;;;;;;5023198;28;20040;-66
2023/07/15 10:02:59;;;;;;;3.92;1.80;;;27.80;93.40;;;;;;5029175;28;20037;-67
2023/07/15 10:05:26;;;;;;;4.32;1.70;;;28.00;93.80;;;;;;5029852;28;20388;-67
2023/07/15 10:07:52;;;;;;;6.05;1.80;;;28.20;92.30;;;;;;5030767;28;20501;-66
2023/07/15 10:10:21;;;;;;;4.43;1.60;;;27.90;92.30;;;;;;5024918;28;20121;-67
2023/07/15 10:12:48;;;;;;;2.97;1.52;;;28.10;92.80;;;;;;5027786;28;20120;-67
2023/07/15 10:15:14;;;;;;;2.22;1.40;;;28.20;92.00;;;;;;5030031;28;20060;-67
2023/07/15 10:17:39;;;;;;;2.13;1.58;;;28.30;92.30;;;;;;5031032;28;20589;-66
2023/07/15 10:20:17;;;;;;;4.18;1.70;;;28.30;91.90;;;;;;5030443;28;20037;-66
2023/07/15 10:22:43;;;;;;;3.65;1.65;;;28.30;91.40;;;;;;5029334;28;20033;-66
2023/07/15 10:25:11;;;;;;;4.53;1.55;;;28.50;91.40;;;;;;5030859;28;20033;-66
2023/07/15 10:27:37;;;;;;;2.70;1.75;;;28.60;90.80;;;;;;5026276;28;20025;-66
2023/07/15 10:30:29;;;;;;;2.17;1.50;;;28.80;89.60;;;;;;5031067;28;20084;-67
2023/07/15 10:33:09;;;;;;;7.38;1.85;;;28.90;84.70;;;;;;5028571;28;20053;-66
2023/07/15 10:35:55;;;;;;;4.28;1.60;;;28.90;85.10;;;;;;5030162;28;20052;-66
2023/07/15 10:38:20;;;;;;;5.28;1.48;;;29.20;86.00;;;;;;5030051;28;20140;-67
2023/07/15 10:41:10;;;;;;;2.92;1.50;;;29.10;84.60;;;;;;5030367;28;20121;-66
2023/07/15 10:43:37;;;;;;;4.20;1.40;;;29.20;83.60;;;;;;5030689;28;20044;-66
2023/07/15 10:46:05;;;;;;;3.17;1.35;;;29.20;86.80;;;;;;5029891;28;20508;-66
2023/07/15 10:48:31;;;;;;;1.27;1.00;;;29.10;84.60;;;;;;5029311;28;20084;-66
2023/07/15 10:51:00;;;;;;;3.72;1.45;;;29.20;84.20;;;;;;5034524;28;20025;-67
2023/07/15 10:53:27;;;;;;;2.55;1.45;;;29.00;82.60;;;;;;5034649;28;20104;-67
2023/07/15 10:55:54;;;;;;;2.10;1.23;;;28.90;85.80;;;;;;5032820;28;20037;-66
2023/07/15 10:58:20;;;;;;;3.88;1.30;;;28.80;85.70;;;;;;5033761;28;20507;-65
2023/07/15 11:00:46;;;;;;;4.85;1.17;;;29.00;82.20;;;;;;5031720;28;20113;-66
2023/07/15 11:03:11;;;;;;;4.07;1.50;;;28.70;82.40;;;;;;5034675;28;20030;-66
2023/07/15 11:05:38;;;;;;;3.67;1.23;;;28.70;83.00;;;;;;5034494;28;20094;-66
2023/07/15 11:08:06;;;;;;;2.65;1.50;;;28.60;83.30;;;;;;5034485;28;20041;-66
2023/07/15 11:10:35;;;;;;;1.80;1.15;;;28.40;82.40;;;;;;5034572;28;20041;-66
2023/07/15 11:13:30;;;;;;;3.20;1.35;;;28.30;85.90;;;;;;5034603;28;20393;-67
2023/07/15 11:15:57;;;;;;;3.58;1.27;;;28.30;84.70;;;;;;5014939;28;20049;-66
2023/07/15 11:18:25;;;;;;;2.33;1.33;;;28.30;85.90;;;;;;5033027;28;20049;-66
2023/07/15 11:20:53;;;;;;;2.80;1.17;;;28.30;88.10;;;;;;5028515;28;20064;-66
2023/07/15 11:23:19;;;;;;;1.63;1.08;;;28.10;89.10;;;;;;5034526;28;20121;-66
2023/07/15 11:25:45;;;;;;;2.72;1.52;;;28.20;88.40;;;;;;5034076;28;20508;-66
2023/07/15 11:28:11;;;;;;;3.47;1.33;;;28.10;86.10;;;;;;5034299;28;20113;-66
2023/07/15 11:30:45;;;;;;;5.55;1.60;;;28.10;86.90;;;;;;5034320;28;20080;-66
2023/07/15 11:33:11;;;;;;;3.95;1.38;;;28.00;86.80;;;;;;5034188;28;20128;-67
2023/07/15 11:35:38;;;;;;;3.95;1.10;;;27.80;87.50;;;;;;5032223;28;20076;-66
2023/07/15 11:38:13;;;;;;;3.50;1.30;;;27.70;88.80;;;;;;5033950;28;20436;-66
2023/07/15 11:40:54;;;;;;;2.60;1.00;;;27.60;89.10;;;;;;5034024;28;20041;-66
2023/07/15 11:43:22;;;;;;;2.58;1.02;;;27.50;90.10;;;;;;5027330;28;20087;-66
2023/07/15 11:45:48;;;;;;;2.67;1.00;;;27.60;91.90;;;;;;5030200;28;20033;-67
2023/07/15 11:48:28;;;;;;;1.50;1.00;;;27.30;91.70;;;;;;5033970;28;20094;-66
2023/07/15 11:51:07;;;;;;;3.40;1.10;;;27.20;91.20;;;;;;5031223;28;20045;-67
2023/07/15 11:53:38;;;;;;;3.75;1.23;;;27.20;91.70;;;;;;5033704;28;20575;-66
2023/07/15 11:56:08;;;;;;;3.92;1.77;;;27.20;91.60;;;;;;5033288;28;20056;-66
2023/07/15 11:58:36;;;;;;;3.90;1.48;;;27.20;91.80;;;;;;5032400;28;20049;-67
2023/07/15 12:01:02;;;;;;;3.97;1.27;;;27.10;91.80;;;;;;5028924;28;20121;-67
2023/07/15 12:03:28;;;;;;;2.00;1.27;;;27.00;90.70;;;;;;5032378;28;20116;-66
2023/07/15 12:05:53;;;;;;;2.25;1.13;;;27.00;90.70;;;;;;5032974;28;20037;-66
2023/07/15 12:08:19;;;;;;;3.35;1.45;;;26.90;91.70;;;;;;5030243;28;20037;-66
2023/07/15 12:10:51;;;;;;;5.45;1.50;;;26.90;92.00;;;;;;5033197;28;20044;-67
2023/07/15 12:13:16;;;;;;;5.53;1.50;;;26.90;92.00;;;;;;5029553;28;20048;-66
2023/07/15 12:15:42;;;;;;;3.03;1.25;;;26.90;92.10;;;;;;5033299;28;20400;-66
2023/07/15 12:18:08;;;;;;;2.67;1.38;;;27.00;91.90;;;;;;5033315;28;20045;-67
2023/07/15 12:20:33;;;;;;;2.05;1.10;;;27.10;91.50;;;;;;5033282;28;20044;-66
2023/07/15 12:22:59;;;;;;;4.97;1.63;;;27.30;91.70;;;;;;5033215;28;20037;-67
2023/07/15 12:25:25;;;;;;;2.85;1.30;;;27.40;91.40;;;;;;5032955;28;20108;-67
2023/07/15 12:27:51;;;;;;;3.33;1.50;;;27.30;91.20;;;;;;5031643;28;20164;-67
2023/07/15 12:30:17;;;;;;;5.80;1.50;;;27.30;91.20;;;;;;5033454;28;20116;-67
2023/07/15 12:32:42;;;;;;;1.92;1.30;;;27.40;91.40;;;;;;5033123;28;20041;-67
2023/07/15 12:35:08;;;;;;;4.50;1.40;;;27.40;91.70;;;;;;5032988;28;20045;-67
2023/07/15 12:37:35;;;;;;;4.53;1.38;;;27.40;91.00;;;;;;5031391;28;20034;-66
2023/07/15 12:40:03;;;;;;;4.28;1.38;;;27.50;91.00;;;;;;5031416;28;20043;-66
2023/07/15 12:42:28;;;;;;;1.77;1.17;;;27.60;90.80;;;;;;5030968;28;20033;-66
2023/07/15 12:44:54;;;;;;;6.90;1.45;;;27.80;91.00;;;;;;5031864;28;20407;-67